Time;durP1;ratioP1;P1;durP2;ratioP2;P2;SDS_P1;SDS_P2;PMS_P1;PMS_P2;Temp;Humidity;BMP_temperature;BMP_pressure;BME280_temperature;BME280_humidity;BME280_pressure;Samples;Min_cycle;Max_cycle;Signal;HPM_P1;HPM_P2
2022/07/10 00:00:08;;;;;;;;;;;;;;;;;;5002501;28;127726;-61
2022/07/10 00:02:37;;;;;;;;;;;;;;;;;;4995221;27;106004;-62
2022/07/10 00:05:04;;;;;;;;;;;;;;;;;;4989145;28;130342;-62
2022/07/10 00:07:30;;;;;;;;;;;;;;;;;;5003996;28;138041;-61
2022/07/10 00:09:56;;;;;;;;;;;;;;;;;;5006303;28;135517;-62
2022/07/10 00:12:23;;;;;;;;;;;;;;;;;;5003868;28;113859;-61
2022/07/10 00:14:49;;;;;;;;;;;;;;;;;;5004669;27;135754;-62
2022/07/10 00:17:15;;;;;;;;;;;;;;;;;;5004506;28;136582;-64
2022/07/10 00:19:42;;;;;;;;;;;;;;;;;;5003989;28;130675;-61
2022/07/10 00:22:08;;;;;;;;;;;;;;;;;;4996338;28;136284;-61
2022/07/10 00:24:34;;;;;;;;;;;;;;;;;;5007493;27;107260;-61
2022/07/10 00:27:01;;;;;;;;;;;;;;;;;;5005325;28;127349;-61
2022/07/10 00:29:27;;;;;;;;;;;;;;;;;;5003167;28;135316;-62
2022/07/10 00:31:53;;;;;;;;;;;;;;;;;;5004921;28;127014;-61
2022/07/10 00:34:19;;;;;;;;;;;;;;;;;;5002075;28;135683;-62
2022/07/10 00:36:46;;;;;;;;;;;;;;;;;;5005857;28;135870;-61
2022/07/10 00:39:13;;;;;;;;;;;;;;;;;;5005314;28;106211;-61
2022/07/10 00:41:39;;;;;;;;;;;;;;;;;;5005226;28;106850;-61
2022/07/10 00:44:05;;;;;;;;;;;;;;;;;;5006560;27;136311;-62
2022/07/10 00:46:32;;;;;;;;;;;;;;;;;;5004966;28;134887;-62
2022/07/10 00:48:58;;;;;;;;;;;;;;;;;;5003670;28;131933;-61
2022/07/10 00:51:24;;;;;;;;;;;;;;;;;;5004241;28;127902;-62
2022/07/10 00:53:51;;;;;;;;;;;;;;;;;;5003007;27;135483;-62
2022/07/10 00:56:17;;;;;;;;;;;;;;;;;;5005196;28;110905;-61
2022/07/10 00:58:43;;;;;;;;;;;;;;;;;;5006000;27;128214;-61
2022/07/10 01:01:10;;;;;;;;;;;;;;;;;;5005506;28;106322;-61
2022/07/10 01:03:36;;;;;;;;;;;;;;;;;;5001875;27;136765;-61
2022/07/10 01:06:02;;;;;;;;;;;;;;;;;;5007217;28;129926;-62
2022/07/10 01:08:29;;;;;;;;;;;;;;;;;;5003500;28;136849;-61
2022/07/10 01:10:55;;;;;;;;;;;;;;;;;;5003435;28;129455;-64
2022/07/10 01:13:21;;;;;;;;;;;;;;;;;;5000868;28;137335;-62
2022/07/10 01:15:47;;;;;;;;;;;;;;;;;;5004416;28;136951;-61
2022/07/10 01:18:14;;;;;;;;;;;;;;;;;;5004030;28;129401;-62
2022/07/10 01:20:40;;;;;;;;;;;;;;;;;;5004849;27;136549;-62
2022/07/10 01:23:06;;;;;;;;;;;;;;;;;;5001474;27;136727;-62
2022/07/10 01:25:33;;;;;;;;;;;;;;;;;;5006031;27;126633;-62
2022/07/10 01:27:59;;;;;;;;;;;;;;;;;;5007323;27;137731;-62
2022/07/10 01:30:25;;;;;;;;;;;;;;;;;;4995489;28;128752;-62
2022/07/10 01:32:52;;;;;;;;;;;;;;;;;;5001188;27;137031;-61
2022/07/10 01:35:18;;;;;;;;;;;;;;;;;;5003414;27;126311;-62
2022/07/10 01:37:44;;;;;;;;;;;;;;;;;;5002799;28;129178;-61
2022/07/10 01:40:11;;;;;;;;;;;;;;;;;;5004246;28;136869;-61
2022/07/10 01:42:37;;;;;;;;;;;;;;;;;;5004276;27;137254;-61
2022/07/10 01:45:03;;;;;;;;;;;;;;;;;;5002285;27;129189;-61
2022/07/10 01:47:32;;;;;;;;;;;;;;;;;;5007771;27;137145;-61
2022/07/10 01:49:58;;;;;;;;;;;;;;;;;;5011321;28;135549;-61
2022/07/10 01:52:24;;;;;;;;;;;;;;;;;;5004708;27;137419;-62
2022/07/10 01:54:51;;;;;;;;;;;;;;;;;;5002456;27;124605;-61
2022/07/10 01:57:17;;;;;;;;;;;;;;;;;;5006954;28;117890;-61
2022/07/10 01:59:44;;;;;;;;;;;;;;;;;;5005713;28;135440;-61
2022/07/10 02:02:10;;;;;;;;;;;;;;;;;;5004452;28;136887;-61
2022/07/10 02:04:42;;;;;;;;;;;;;;;;;;5000145;27;128981;-61
2022/07/10 02:07:09;;;;;;;;;;;;;;;;;;5005519;28;139448;-62
2022/07/10 02:09:35;;;;;;;;;;;;;;;;;;5006698;28;107662;-61
2022/07/10 02:12:01;;;;;;;;;;;;;;;;;;5008848;28;127765;-61
2022/07/10 02:14:28;;;;;;;;;;;;;;;;;;5006026;27;137172;-62
2022/07/10 02:16:55;;;;;;;;;;;;;;;;;;5005998;28;119853;-62
2022/07/10 02:19:21;;;;;;;;;;;;;;;;;;5005787;28;130880;-62
2022/07/10 02:21:48;;;;;;;;;;;;;;;;;;5007380;28;136329;-62
2022/07/10 02:24:14;;;;;;;;;;;;;;;;;;5005917;27;127335;-61
2022/07/10 02:26:40;;;;;;;;;;;;;;;;;;5006505;28;135704;-61
2022/07/10 02:29:07;;;;;;;;;;;;;;;;;;5006057;27;137620;-62
2022/07/10 02:31:34;;;;;;;;;;;;;;;;;;5010246;28;128004;-61
2022/07/10 02:34:00;;;;;;;;;;;;;;;;;;5003936;28;137641;-62
2022/07/10 02:36:27;;;;;;;;;;;;;;;;;;5006875;28;122257;-61
2022/07/10 02:38:53;;;;;;;;;;;;;;;;;;5004799;27;137258;-62
2022/07/10 02:41:20;;;;;;;;;;;;;;;;;;5005313;28;136822;-62
2022/07/10 02:43:46;;;;;;;;;;;;;;;;;;5005829;27;127905;-62
2022/07/10 02:46:12;;;;;;;;;;;;;;;;;;5005898;27;136773;-61
2022/07/10 02:48:38;;;;;;;;;;;;;;;;;;5003000;28;129379;-61
2022/07/10 02:51:05;;;;;;;;;;;;;;;;;;5004933;27;126380;-61
2022/07/10 02:53:31;;;;;;;;;;;;;;;;;;5010834;27;136631;-61
2022/07/10 02:55:58;;;;;;;;;;;;;;;;;;5006701;27;107680;-61
2022/07/10 02:58:25;;;;;;;;;;;;;;;;;;5005826;28;135425;-61
2022/07/10 03:00:51;;;;;;;;;;;;;;;;;;5007436;28;137946;-62
2022/07/10 03:03:18;;;;;;;;;;;;;;;;;;5005870;28;127341;-62
2022/07/10 03:05:44;;;;;;;;;;;;;;;;;;4996446;28;137247;-61
2022/07/10 03:08:11;;;;;;;;;;;;;;;;;;5006734;28;137086;-61
2022/07/10 03:10:37;;;;;;;;;;;;;;;;;;5004574;28;128685;-61
2022/07/10 03:13:03;;;;;;;;;;;;;;;;;;4966464;28;135873;-61
2022/07/10 03:15:29;;;;;;;;;;;;;;;;;;4967826;28;137358;-61
2022/07/10 03:17:56;;;;;;;;;;;;;;;;;;4966187;28;138121;-64
2022/07/10 03:20:22;;;;;;;;;;;;;;;;;;4964864;28;134907;-62
2022/07/10 03:22:48;;;;;;;;;;;;;;;;;;4965799;28;128070;-63
2022/07/10 03:25:15;;;;;;;;;;;;;;;;;;4966209;28;137756;-61
2022/07/10 03:27:41;;;;;;;;;;;;;;;;;;4966429;28;136796;-61
2022/07/10 03:30:07;;;;;;;;;;;;;;;;;;4964827;28;129361;-61
2022/07/10 03:32:33;;;;;;;;;;;;;;;;;;4966138;28;136102;-61
2022/07/10 03:35:00;;;;;;;;;;;;;;;;;;4963040;28;107374;-62
2022/07/10 03:37:27;;;;;;;;;;;;;;;;;;4971333;28;106590;-62
2022/07/10 03:39:53;;;;;;;;;;;;;;;;;;4965305;28;134339;-62
2022/07/10 03:42:19;;;;;;;;;;;;;;;;;;4966041;28;128128;-62
2022/07/10 03:44:45;;;;;;;;;;;;;;;;;;4965522;28;136556;-62
2022/07/10 03:47:12;;;;;;;;;;;;;;;;;;4964512;28;135825;-62
2022/07/10 03:49:38;;;;;;;;;;;;;;;;;;4966917;28;106979;-61
2022/07/10 03:52:05;;;;;;;;;;;;;;;;;;4965778;28;136642;-61
2022/07/10 03:54:31;;;;;;;;;;;;;;;;;;4964624;28;109359;-62
2022/07/10 03:59:42;;;;;;;;;;;;;;;;;;4968991;28;135882;-61
2022/07/10 04:02:08;;;;;;;;;;;;;;;;;;4965205;28;129449;-62
2022/07/10 04:04:35;;;;;;;;;;;;;;;;;;4964527;28;135370;-63
2022/07/10 04:07:01;;;;;;;;;;;;;;;;;;4949856;28;137869;-62
2022/07/10 04:09:27;;;;;;;;;;;;;;;;;;4957391;28;129094;-62
2022/07/10 04:11:54;;;;;;;;;;;;;;;;;;4984985;27;118987;-63
2022/07/10 04:14:20;;;;;;;;;;;;;;;;;;5005035;27;138360;-65
2022/07/10 04:16:46;;;;;;;;;;;;;;;;;;5006705;28;129243;-64
2022/07/10 04:19:12;;;;;;;;;;;;;;;;;;5004649;28;137425;-62
2022/07/10 04:21:39;;;;;;;;;;;;;;;;;;5004363;27;133905;-63
2022/07/10 04:24:05;;;;;;;;;;;;;;;;;;5004994;28;135610;-63
2022/07/10 04:26:32;;;;;;;;;;;;;;;;;;5005376;28;135153;-62
2022/07/10 04:28:58;;;;;;;;;;;;;;;;;;5006360;27;106623;-63
2022/07/10 04:31:25;;;;;;;;;;;;;;;;;;5004155;28;107190;-63
2022/07/10 04:33:51;;;;;;;;;;;;;;;;;;5004213;28;128097;-63
2022/07/10 04:36:18;;;;;;;;;;;;;;;;;;5005932;28;129740;-63
2022/07/10 04:38:44;;;;;;;;;;;;;;;;;;5005362;27;134426;-62
2022/07/10 04:41:10;;;;;;;;;;;;;;;;;;5002060;28;136545;-62
2022/07/10 04:43:37;;;;;;;;;;;;;;;;;;5003183;28;137725;-63
2022/07/10 04:46:03;;;;;;;;;;;;;;;;;;5003909;28;125307;-62
2022/07/10 04:48:29;;;;;;;;;;;;;;;;;;5003415;28;130633;-62
2022/07/10 04:50:56;;;;;;;;;;;;;;;;;;5000090;28;135973;-62
2022/07/10 04:53:22;;;;;;;;;;;;;;;;;;5004087;28;135605;-63
2022/07/10 04:55:48;;;;;;;;;;;;;;;;;;5005844;28;106089;-63
2022/07/10 04:58:15;;;;;;;;;;;;;;;;;;5004657;28;108214;-63
2022/07/10 05:00:41;;;;;;;;;;;;;;;;;;5004695;27;136762;-64
2022/07/10 05:03:07;;;;;;;;;;;;;;;;;;5001289;28;129212;-62
2022/07/10 05:05:34;;;;;;;;;;;;;;;;;;5001857;28;130583;-62
2022/07/10 05:08:00;;;;;;;;;;;;;;;;;;4995477;28;124171;-62
2022/07/10 05:10:27;;;;;;;;;;;;;;;;;;5002162;28;135388;-62
2022/07/10 05:12:53;;;;;;;;;;;;;;;;;;5000754;28;137303;-62
2022/07/10 05:15:19;;;;;;;;;;;;;;;;;;4998027;27;130321;-61
2022/07/10 05:17:46;;;;;;;;;;;;;;;;;;5007761;28;136679;-62
2022/07/10 05:20:12;;;;;;;;;;;;;;;;;;5008238;28;136956;-61
2022/07/10 05:22:38;;;;;;;;;;;;;;;;;;5007422;28;128200;-62
2022/07/10 05:25:04;;;;;;;;;;;;;;;;;;5002846;27;137438;-63
2022/07/10 05:27:31;;;;;;;;;;;;;;;;;;5007289;28;128120;-62
2022/07/10 05:29:57;;;;;;;;;;;;;;;;;;5004127;27;126177;-63
2022/07/10 05:32:25;;;;;;;;;;;;;;;;;;4997761;28;136282;-62
2022/07/10 05:34:51;;;;;;;;;;;;;;;;;;4986218;28;127980;-62
2022/07/10 05:37:17;;;;;;;;;;;;;;;;;;5001927;28;137159;-62
2022/07/10 05:39:44;;;;;;;;;;;;;;;;;;5007807;28;135967;-65
2022/07/10 05:42:11;;;;;;;;;;;;;;;;;;5005228;28;129317;-63
2022/07/10 05:44:37;;;;;;;;;;;;;;;;;;5006518;28;136890;-63
2022/07/10 05:47:03;;;;;;;;;;;;;;;;;;5009089;28;137891;-62
2022/07/10 05:49:32;;;;;;;;;;;;;;;;;;5006049;28;135768;-63
2022/07/10 05:51:58;;;;;;;;;;;;;;;;;;5006485;28;136716;-62
2022/07/10 05:54:24;;;;;;;;;;;;;;;;;;5008225;28;128014;-62
2022/07/10 05:56:51;;;;;;;;;;;;;;;;;;5002755;28;136612;-62
2022/07/10 05:59:17;;;;;;;;;;;;;;;;;;5007319;28;137145;-62
2022/07/10 06:01:43;;;;;;;;;;;;;;;;;;5005025;27;128799;-62
2022/07/10 06:04:09;;;;;;;;;;;;;;;;;;5006664;27;117282;-62
2022/07/10 06:06:36;;;;;;;;;;;;;;;;;;5007064;28;137633;-62
2022/07/10 06:09:02;;;;;;;;;;;;;;;;;;5011213;28;106337;-62
2022/07/10 06:11:29;;;;;;;;;;;;;;;;;;5004483;28;135798;-62
2022/07/10 06:13:55;;;;;;;;;;;;;;;;;;5007576;28;129963;-62
2022/07/10 06:16:22;;;;;;;;;;;;;;;;;;5006867;27;136136;-62
2022/07/10 06:18:48;;;;;;;;;;;;;;;;;;5005228;28;136905;-65
2022/07/10 06:21:14;;;;;;;;;;;;;;;;;;5006240;28;124883;-62
2022/07/10 06:23:41;;;;;;;;;;;;;;;;;;4988971;28;135121;-62
2022/07/10 06:26:07;;;;;;;;;;;;;;;;;;4999185;28;137577;-62
2022/07/10 06:28:33;;;;;;;;;;;;;;;;;;5006745;27;106591;-62
2022/07/10 06:31:00;;;;;;;;;;;;;;;;;;5009918;28;136605;-62
2022/07/10 06:33:26;;;;;;;;;;;;;;;;;;5003472;27;131323;-62
2022/07/10 06:35:52;;;;;;;;;;;;;;;;;;5006589;27;136279;-62
2022/07/10 06:38:19;;;;;;;;;;;;;;;;;;5005957;28;136314;-62
2022/07/10 06:40:45;;;;;;;;;;;;;;;;;;5005106;27;129682;-62
2022/07/10 06:43:11;;;;;;;;;;;;;;;;;;5005896;27;136867;-62
2022/07/10 06:45:37;;;;;;;;;;;;;;;;;;5005622;28;137644;-62
2022/07/10 06:48:04;;;;;;;;;;;;;;;;;;5004477;27;125957;-62
2022/07/10 06:50:30;;;;;;;;;;;;;;;;;;5009250;28;137431;-62
2022/07/10 06:52:57;;;;;;;;;;;;;;;;;;5007261;27;126749;-62
2022/07/10 06:55:23;;;;;;;;;;;;;;;;;;5006145;28;137194;-62
2022/07/10 06:57:49;;;;;;;;;;;;;;;;;;5004700;28;137272;-63
2022/07/10 07:00:15;;;;;;;;;;;;;;;;;;5005400;28;130196;-62
2022/07/10 07:02:42;;;;;;;;;;;;;;;;;;4990237;28;137070;-62
2022/07/10 07:05:08;;;;;;;;;;;;;;;;;;5005926;27;137871;-62
2022/07/10 07:07:35;;;;;;;;;;;;;;;;;;5007030;28;128497;-63
2022/07/10 07:10:01;;;;;;;;;;;;;;;;;;5005282;28;135807;-62
2022/07/10 07:12:27;;;;;;;;;;;;;;;;;;5008724;28;136424;-64
2022/07/10 07:14:54;;;;;;;;;;;;;;;;;;5004635;28;136730;-63
2022/07/10 07:17:33;;;;;;;;;;;;;;;;;;5003411;28;135726;-64
2022/07/10 07:25:29;;;;;;;;;;;;;;;;;;5002338;28;135809;-62
2022/07/10 07:27:56;;;;;;;;;;;;;;;;;;5000677;28;129407;-62
2022/07/10 07:30:22;;;;;;;;;;;;;;;;;;5006493;27;132450;-63
2022/07/10 07:32:48;;;;;;;;;;;;;;;;;;5005720;28;137208;-64
2022/07/10 07:35:14;;;;;;;;;;;;;;;;;;5010691;27;105925;-63
2022/07/10 07:37:41;;;;;;;;;;;;;;;;;;5004358;28;138348;-62
2022/07/10 07:40:07;;;;;;;;;;;;;;;;;;4990882;27;112777;-62
2022/07/10 07:42:33;;;;;;;;;;;;;;;;;;5001804;28;137654;-64
2022/07/10 07:45:00;;;;;;;;;;;;;;;;;;5004278;28;137607;-63
2022/07/10 07:47:26;;;;;;;;;;;;;;;;;;5004757;28;128093;-64
2022/07/10 07:49:52;;;;;;;;;;;;;;;;;;5004548;28;136871;-64
2022/07/10 07:52:18;;;;;;;;;;;;;;;;;;5006117;28;136521;-64
2022/07/10 07:54:45;;;;;;;;;;;;;;;;;;5005050;27;130473;-63
2022/07/10 07:57:11;;;;;;;;;;;;;;;;;;5008189;28;137270;-63
2022/07/10 07:59:39;;;;;;;;;;;;;;;;;;5003905;28;129018;-62
2022/07/10 08:02:05;;;;;;;;;;;;;;;;;;5001274;27;137773;-62
2022/07/10 08:04:32;;;;;;;;;;;;;;;;;;5000727;28;136118;-62
2022/07/10 08:07:01;;;;;;;;;;;;;;;;;;5005016;28;107940;-62
2022/07/10 08:09:27;;;;;;;;;;;;;;;;;;5006578;28;132918;-62
2022/07/10 08:11:53;;;;;;;;;;;;;;;;;;5003800;28;133651;-62
2022/07/10 08:14:19;;;;;;;;;;;;;;;;;;5005093;28;126340;-62
2022/07/10 08:16:46;;;;;;;;;;;;;;;;;;5004880;28;134531;-62
2022/07/10 08:19:12;;;;;;;;;;;;;;;;;;4992006;28;138326;-62
2022/07/10 08:21:38;;;;;;;;;;;;;;;;;;5005218;28;136679;-62
2022/07/10 08:24:05;;;;;;;;;;;;;;;;;;5005444;27;120971;-62
2022/07/10 08:26:31;;;;;;;;;;;;;;;;;;5003092;28;130470;-62
2022/07/10 08:28:57;;;;;;;;;;;;;;;;;;5004660;28;136457;-62
2022/07/10 08:31:24;;;;;;;;;;;;;;;;;;5003616;28;115642;-62
2022/07/10 08:33:52;;;;;;;;;;;;;;;;;;5003845;27;128567;-64
2022/07/10 08:36:18;;;;;;;;;;;;;;;;;;5004531;28;106663;-62
2022/07/10 08:39:04;;;;;;;;;;;;;;;;;;4999058;28;107386;-63
2022/07/10 08:41:31;;;;;;;;;;;;;;;;;;5007708;27;106353;-63
2022/07/10 08:43:57;;;;;;;;;;;;;;;;;;5005160;28;134398;-63
2022/07/10 08:46:23;;;;;;;;;;;;;;;;;;5004323;28;128482;-63
2022/07/10 08:48:50;;;;;;;;;;;;;;;;;;5003841;27;134395;-64
2022/07/10 08:51:16;;;;;;;;;;;;;;;;;;5004239;28;134797;-63
2022/07/10 08:53:44;;;;;;;;;;;;;;;;;;5005473;28;106438;-63
2022/07/10 08:56:10;;;;;;;;;;;;;;;;;;5004442;28;135558;-62
2022/07/10 08:58:36;;;;;;;;;;;;;;;;;;5000464;28;131293;-62
2022/07/10 09:01:03;;;;;;;;;;;;;;;;;;5008744;27;128349;-63
2022/07/10 09:03:29;;;;;;;;;;;;;;;;;;5000039;28;138335;-63
2022/07/10 09:05:56;;;;;;;;;;;;;;;;;;5004534;28;123848;-63
2022/07/10 09:08:23;;;;;;;;;;;;;;;;;;5002872;28;135996;-63
2022/07/10 09:10:50;;;;;;;;;;;;;;;;;;5004579;27;126404;-63
2022/07/10 09:13:16;;;;;;;;;;;;;;;;;;5004433;27;129331;-62
2022/07/10 09:15:43;;;;;;;;;;;;;;;;;;5002980;28;135489;-63
2022/07/10 09:18:09;;;;;;;;;;;;;;;;;;4989103;28;136737;-62
2022/07/10 09:20:35;;;;;;;;;;;;;;;;;;4990282;28;113021;-63
2022/07/10 09:23:02;;;;;;;;;;;;;;;;;;4995826;28;117194;-62
2022/07/10 09:25:28;;;;;;;;;;;;;;;;;;4990732;28;110658;-63
2022/07/10 09:27:54;;;;;;;;;;;;;;;;;;4998520;28;136714;-63
2022/07/10 09:30:21;;;;;;;;;;;;;;;;;;4995459;28;137288;-64
2022/07/10 09:32:47;;;;;;;;;;;;;;;;;;4999491;28;128061;-63
2022/07/10 09:37:58;;;;;;;;;;;;;;;;;;5002144;28;128435;-62
2022/07/10 09:40:25;;;;;;;;;;;;;;;;;;4994179;28;125131;-63
2022/07/10 09:42:51;;;;;;;;;;;;;;;;;;5003691;28;136245;-63
2022/07/10 09:45:17;;;;;;;;;;;;;;;;;;5006207;28;132204;-62
2022/07/10 09:47:44;;;;;;;;;;;;;;;;;;5002801;28;135502;-65
2022/07/10 09:50:10;;;;;;;;;;;;;;;;;;5001865;28;124034;-64
2022/07/10 09:52:37;;;;;;;;;;;;;;;;;;5003613;28;128653;-64
2022/07/10 09:55:03;;;;;;;;;;;;;;;;;;4998933;27;136821;-63
2022/07/10 09:57:29;;;;;;;;;;;;;;;;;;4990162;28;137439;-63
2022/07/10 09:59:56;;;;;;;;;;;;;;;;;;5001662;28;128496;-63
2022/07/10 10:02:22;;;;;;;;;;;;;;;;;;5003593;27;129628;-63
2022/07/10 10:04:48;;;;;;;;;;;;;;;;;;5002575;27;135526;-63
2022/07/10 10:07:14;;;;;;;;;;;;;;;;;;5010585;28;129848;-62
2022/07/10 10:09:41;;;;;;;;;;;;;;;;;;5006853;27;137778;-63
2022/07/10 10:12:08;;;;;;;;;;;;;;;;;;5007234;27;130290;-63
2022/07/10 10:14:34;;;;;;;;;;;;;;;;;;5007422;28;137486;-62
2022/07/10 10:17:00;;;;;;;;;;;;;;;;;;5002573;27;136559;-64
2022/07/10 10:22:11;;;;;;;;;;;;;;;;;;5006956;28;137247;-64
2022/07/10 10:24:41;;;;;;;;;;;;;;;;;;5002261;28;108346;-63
2022/07/10 10:27:07;;;;;;;;;;;;;;;;;;5003503;28;129199;-63
2022/07/10 10:29:34;;;;;;;;;;;;;;;;;;5000626;28;135204;-64
2022/07/10 10:32:00;;;;;;;;;;;;;;;;;;4998168;28;130782;-64
2022/07/10 10:34:27;;;;;;;;;;;;;;;;;;5002218;28;108023;-63
2022/07/10 10:36:53;;;;;;;;;;;;;;;;;;5004160;28;138896;-63
2022/07/10 10:39:19;;;;;;;;;;;;;;;;;;5005434;28;131917;-62
2022/07/10 10:41:45;;;;;;;;;;;;;;;;;;5007283;28;136781;-62
2022/07/10 10:44:16;;;;;;;;;;;;;;;;;;5005924;28;125133;-62
2022/07/10 10:46:42;;;;;;;;;;;;;;;;;;5004640;28;130247;-63
2022/07/10 10:49:08;;;;;;;;;;;;;;;;;;5005560;28;131263;-62
2022/07/10 10:51:35;;;;;;;;;;;;;;;;;;5009166;28;106545;-62
2022/07/10 10:54:01;;;;;;;;;;;;;;;;;;5007762;28;137230;-63
2022/07/10 10:56:29;;;;;;;;;;;;;;;;;;5004887;28;136085;-62
2022/07/10 10:58:55;;;;;;;;;;;;;;;;;;5004321;27;129095;-62
2022/07/10 11:01:22;;;;;;;;;;;;;;;;;;5004754;28;135102;-62
2022/07/10 11:03:48;;;;;;;;;;;;;;;;;;5001232;28;133621;-62
2022/07/10 11:06:15;;;;;;;;;;;;;;;;;;4998756;27;127790;-62
2022/07/10 11:08:43;;;;;;;;;;;;;;;;;;5003316;28;131273;-62
2022/07/10 11:11:09;;;;;;;;;;;;;;;;;;5008802;28;137013;-61
2022/07/10 11:13:36;;;;;;;;;;;;;;;;;;5005184;28;137681;-61
2022/07/10 11:16:02;;;;;;;;;;;;;;;;;;5005920;28;137777;-62
2022/07/10 11:18:28;;;;;;;;;;;;;;;;;;5003903;28;128105;-62
2022/07/10 11:20:55;;;;;;;;;;;;;;;;;;5006086;28;130997;-61
2022/07/10 11:23:21;;;;;;;;;;;;;;;;;;5001703;28;128969;-63
2022/07/10 11:25:50;;;;;;;;;;;;;;;;;;5004855;28;116697;-61
2022/07/10 11:28:18;;;;;;;;;;;;;;;;;;5005258;28;136491;-61
2022/07/10 11:30:44;;;;;;;;;;;;;;;;;;5002836;28;137069;-62
2022/07/10 11:33:11;;;;;;;;;;;;;;;;;;5004664;28;129339;-61
2022/07/10 11:35:37;;;;;;;;;;;;;;;;;;5005112;28;133888;-61
2022/07/10 11:38:03;;;;;;;;;;;;;;;;;;5006571;28;128864;-61
2022/07/10 11:40:30;;;;;;;;;;;;;;;;;;5005737;28;136667;-62
2022/07/10 11:42:57;;;;;;;;;;;;;;;;;;5003247;28;136256;-61
2022/07/10 11:45:23;;;;;;;;;;;;;;;;;;5006952;28;114318;-62
2022/07/10 11:47:50;;;;;;;;;;;;;;;;;;5001400;28;137675;-62
2022/07/10 11:50:16;;;;;;;;;;;;;;;;;;5000987;28;122981;-61
2022/07/10 11:52:42;;;;;;;;;;;;;;;;;;5005141;28;128128;-62
2022/07/10 11:55:09;;;;;;;;;;;;;;;;;;5008256;28;120805;-65
2022/07/10 11:57:36;;;;;;;;;;;;;;;;;;5003693;28;121930;-62
2022/07/10 12:00:03;;;;;;;;;;;;;;;;;;5007452;28;127434;-61
2022/07/10 12:02:37;;;;;;;;;;;;;;;;;;4989455;28;108770;-62
2022/07/10 12:05:05;;;;;;;;;;;;;;;;;;4994395;28;129299;-62
2022/07/10 12:07:31;;;;;;;;;;;;;;;;;;4997456;28;136379;-62
2022/07/10 12:09:58;;;;;;;;;;;;;;;;;;4991430;28;135031;-62
2022/07/10 12:12:24;;;;;;;;;;;;;;;;;;4995708;28;128287;-62
2022/07/10 12:14:50;;;;;;;;;;;;;;;;;;4994166;27;107289;-62
2022/07/10 12:17:17;;;;;;;;;;;;;;;;;;4997006;28;135742;-63
2022/07/10 12:19:43;;;;;;;;;;;;;;;;;;4994233;28;138947;-62
2022/07/10 12:22:10;;;;;;;;;;;;;;;;;;4992442;28;137922;-62
2022/07/10 12:24:36;;;;;;;;;;;;;;;;;;4995842;28;128038;-62
2022/07/10 12:27:02;;;;;;;;;;;;;;;;;;4990144;28;137502;-63
2022/07/10 12:29:28;;;;;;;;;;;;;;;;;;4997094;28;135128;-62
2022/07/10 12:31:55;;;;;;;;;;;;;;;;;;4993762;28;130379;-62
2022/07/10 12:34:22;;;;;;;;;;;;;;;;;;4995047;27;137320;-62
2022/07/10 12:36:49;;;;;;;;;;;;;;;;;;4998225;28;137239;-64
2022/07/10 12:39:15;;;;;;;;;;;;;;;;;;5002377;28;123741;-62
2022/07/10 12:41:42;;;;;;;;;;;;;;;;;;4995484;27;137428;-62
2022/07/10 12:44:08;;;;;;;;;;;;;;;;;;5001256;28;129198;-63
2022/07/10 12:46:34;;;;;;;;;;;;;;;;;;4998300;28;138069;-62
2022/07/10 12:49:01;;;;;;;;;;;;;;;;;;4999662;28;135911;-62
2022/07/10 12:51:28;;;;;;;;;;;;;;;;;;4997932;28;128188;-63
2022/07/10 12:54:07;;;;;;;;;;;;;;;;;;5000882;28;135596;-62
2022/07/10 12:56:34;;;;;;;;;;;;;;;;;;4998238;28;124380;-62
2022/07/10 12:59:00;;;;;;;;;;;;;;;;;;5005389;28;122982;-62
2022/07/10 13:01:27;;;;;;;;;;;;;;;;;;4996715;28;136180;-62
2022/07/10 13:03:54;;;;;;;;;;;;;;;;;;4997088;28;128206;-62
2022/07/10 13:06:20;;;;;;;;;;;;;;;;;;4995737;28;134920;-64
2022/07/10 13:08:46;;;;;;;;;;;;;;;;;;5000898;28;130059;-62
2022/07/10 13:11:13;;;;;;;;;;;;;;;;;;5000446;28;130167;-62
2022/07/10 13:13:42;;;;;;;;;;;;;;;;;;4997823;28;120082;-62
2022/07/10 13:16:08;;;;;;;;;;;;;;;;;;5000761;28;134041;-62
2022/07/10 13:18:35;;;;;;;;;;;;;;;;;;4994826;28;130866;-61
2022/07/10 13:21:02;;;;;;;;;;;;;;;;;;4996341;28;137608;-62
2022/07/10 13:23:29;;;;;;;;;;;;;;;;;;4996496;28;131965;-62
2022/07/10 13:25:55;;;;;;;;;;;;;;;;;;5001697;28;137312;-62
2022/07/10 13:28:21;;;;;;;;;;;;;;;;;;5000748;27;136978;-62
2022/07/10 13:30:48;;;;;;;;;;;;;;;;;;4993215;28;125082;-65
2022/07/10 13:33:14;;;;;;;;;;;;;;;;;;4993801;28;130470;-62
2022/07/10 13:35:41;;;;;;;;;;;;;;;;;;4995396;27;131441;-62
2022/07/10 13:38:07;;;;;;;;;;;;;;;;;;5003520;28;129674;-61
2022/07/10 13:40:38;;;;;;;;;;;;;;;;;;5000400;28;126268;-62
2022/07/10 13:43:06;;;;;;;;;;;;;;;;;;4998587;28;129316;-62
2022/07/10 13:45:36;;;;;;;;;;;;;;;;;;4999769;28;137146;-62
2022/07/10 13:48:02;;;;;;;;;;;;;;;;;;5000446;28;138405;-62
2022/07/10 13:50:28;;;;;;;;;;;;;;;;;;5004535;27;107138;-62
2022/07/10 13:52:55;;;;;;;;;;;;;;;;;;5004685;27;136716;-62
2022/07/10 13:55:21;;;;;;;;;;;;;;;;;;5002408;28;136082;-62
2022/07/10 13:57:47;;;;;;;;;;;;;;;;;;4999961;28;129532;-62
2022/07/10 14:00:14;;;;;;;;;;;;;;;;;;5000215;28;136060;-62
2022/07/10 14:02:40;;;;;;;;;;;;;;;;;;5003689;28;136366;-61
2022/07/10 14:05:07;;;;;;;;;;;;;;;;;;5000327;28;127643;-62
2022/07/10 14:07:34;;;;;;;;;;;;;;;;;;5003123;28;130187;-62
2022/07/10 14:10:01;;;;;;;;;;;;;;;;;;5001389;28;128903;-64
2022/07/10 14:12:28;;;;;;;;;;;;;;;;;;4999381;28;117424;-62
2022/07/10 14:14:54;;;;;;;;;;;;;;;;;;5000355;28;136547;-63
2022/07/10 14:17:20;;;;;;;;;;;;;;;;;;5001648;28;118136;-63
2022/07/10 14:19:47;;;;;;;;;;;;;;;;;;4999533;27;124612;-64
2022/07/10 14:22:13;;;;;;;;;;;;;;;;;;5004988;28;138662;-65
2022/07/10 14:24:39;;;;;;;;;;;;;;;;;;5002488;28;129725;-61
2022/07/10 14:27:06;;;;;;;;;;;;;;;;;;4999786;28;137751;-61
2022/07/10 14:29:32;;;;;;;;;;;;;;;;;;5000830;28;126344;-60
2022/07/10 14:31:58;;;;;;;;;;;;;;;;;;5005262;28;135434;-62
2022/07/10 14:34:26;;;;;;;;;;;;;;;;;;5001079;28;138710;-62
2022/07/10 14:36:53;;;;;;;;;;;;;;;;;;5001215;28;130027;-62
2022/07/10 14:39:25;;;;;;;;;;;;;;;;;;5000449;28;137192;-61
2022/07/10 14:41:51;;;;;;;;;;;;;;;;;;4997625;28;123332;-63
2022/07/10 14:44:18;;;;;;;;;;;;;;;;;;5000179;27;106768;-66
2022/07/10 14:46:44;;;;;;;;;;;;;;;;;;4998018;28;137436;-63
2022/07/10 14:49:11;;;;;;;;;;;;;;;;;;5010110;28;108048;-62
2022/07/10 14:51:38;;;;;;;;;;;;;;;;;;5007647;28;134785;-63
2022/07/10 14:54:05;;;;;;;;;;;;;;;;;;4994282;27;137025;-62
2022/07/10 14:56:31;;;;;;;;;;;;;;;;;;4995092;28;127954;-65
2022/07/10 14:58:58;;;;;;;;;;;;;;;;;;4999049;27;119092;-63
2022/07/10 15:01:39;;;;;;;;;;;;;;;;;;4996088;28;134702;-63
2022/07/10 15:04:05;;;;;;;;;;;;;;;;;;5003989;27;126809;-63
2022/07/10 15:06:32;;;;;;;;;;;;;;;;;;5001413;28;136471;-61
2022/07/10 15:08:58;;;;;;;;;;;;;;;;;;4994327;28;136022;-61
2022/07/10 15:11:25;;;;;;;;;;;;;;;;;;5002424;28;106947;-61
2022/07/10 15:13:58;;;;;;;;;;;;;;;;;;5003867;27;128600;-61
2022/07/10 15:16:25;;;;;;;;;;;;;;;;;;5005097;28;129525;-61
2022/07/10 15:18:51;;;;;;;;;;;;;;;;;;5002549;28;138359;-62
2022/07/10 15:21:18;;;;;;;;;;;;;;;;;;5006915;27;137961;-61
2022/07/10 15:23:44;;;;;;;;;;;;;;;;;;5003441;28;129928;-61
2022/07/10 15:26:12;;;;;;;;;;;;;;;;;;5003400;27;136344;-61
2022/07/10 15:28:38;;;;;;;;;;;;;;;;;;4996551;28;107142;-60
2022/07/10 15:31:05;;;;;;;;;;;;;;;;;;5006879;27;109571;-61
2022/07/10 15:33:32;;;;;;;;;;;;;;;;;;5003577;28;137640;-61
2022/07/10 15:35:59;;;;;;;;;;;;;;;;;;5000176;27;128405;-60
2022/07/10 15:38:25;;;;;;;;;;;;;;;;;;5002225;28;123457;-61
2022/07/10 15:40:51;;;;;;;;;;;;;;;;;;4998703;27;137686;-60
2022/07/10 15:43:18;;;;;;;;;;;;;;;;;;4996635;28;122391;-60
2022/07/10 15:45:44;;;;;;;;;;;;;;;;;;4997983;27;135808;-61
2022/07/10 15:48:14;;;;;;;;;;;;;;;;;;4995291;28;132501;-61
2022/07/10 15:50:41;;;;;;;;;;;;;;;;;;4995192;27;130305;-61
2022/07/10 15:53:07;;;;;;;;;;;;;;;;;;5009405;28;136925;-62
2022/07/10 15:55:33;;;;;;;;;;;;;;;;;;5002125;27;114851;-60
2022/07/10 15:58:00;;;;;;;;;;;;;;;;;;4997145;28;136285;-61
2022/07/10 16:00:26;;;;;;;;;;;;;;;;;;5000529;27;137194;-61
2022/07/10 16:02:53;;;;;;;;;;;;;;;;;;4999183;28;129429;-60
2022/07/10 16:05:23;;;;;;;;;;;;;;;;;;4999096;27;136874;-61
2022/07/10 16:07:49;;;;;;;;;;;;;;;;;;5010188;27;137585;-60
2022/07/10 16:10:15;;;;;;;;;;;;;;;;;;4996092;27;126819;-62
2022/07/10 16:12:41;;;;;;;;;;;;;;;;;;5002860;28;135209;-61
2022/07/10 16:15:08;;;;;;;;;;;;;;;;;;5002432;27;137774;-60
2022/07/10 16:17:39;;;;;;;;;;;;;;;;;;4999869;28;135692;-60
2022/07/10 16:20:05;;;;;;;;;;;;;;;;;;5003310;27;122243;-60
2022/07/10 16:22:32;;;;;;;;;;;;;;;;;;5006117;28;106083;-61
2022/07/10 16:27:43;;;;;;;;;;;;;;;;;;5004421;28;138111;-61
2022/07/10 16:30:10;;;;;;;;;;;;;;;;;;5001948;28;126811;-63
2022/07/10 16:32:36;;;;;;;;;;;;;;;;;;5005130;28;106282;-62
2022/07/10 16:35:02;;;;;;;;;;;;;;;;;;5003458;27;136932;-60
2022/07/10 16:37:29;;;;;;;;;;;;;;;;;;5005104;28;124342;-60
2022/07/10 16:39:55;;;;;;;;;;;;;;;;;;4999465;27;135532;-61